map of KJYM home
KJYM - Airport
Location
City:  Hillsdale, Michigan, United States
Name:Hillsdale Municipal Airport
ICAO:KJYM
FAA LID:JYM

Details
Type:Airport (Airfield)
Use:Public/Civil
Latitude:4155'17"N (41.921303)
Longitude:8435'12"W (-84.586698)
Datum:WGS 1984
Elevation:1184 ft (361 m)
Variation:6.35W (WMM2015 magnetic declination)
-0.04 annual change
Runways:1
Longest:5000 × 100 ft (1524 × 30.5 m), paved

Time
Time Zone:UTC-5 (DST-4)
Local Time:

Weather
METAR:KJYM 130736Z AUTO 29006KT 10SM OVC027 00/M02 A2997 RMK AO2

Related Locations
Nearby:
Farthest:YAUG: 11248 mi / 18101 km
Augusta [Augusta Airport], WA, AU

Find:

   beyond  
but within

Other Information
Maps:
NOTAMs:
Links:
Sources:

  
  • flag of United States
  • flag of Michigan
  

Sectional Chart

Flight Planning
at skyvector.com

Satellite Image

Google Maps Satellite view

 

Copyright © 2004-2018 Karl L. Swartz. All rights reserved.
The Great Circle Mapper name and logo are trademarks of the Great Circle Mapper.
All other trademarks mentioned herein belong to their respective owners.
Please see credits for attibutions and further copyright information.

  Follow gcmap on Facebook Follow gcmap on Twitter Follow gcmap on Google+ GCmap on LinkedIn

hCard Microformat

Geo Microformat